Observations for Trim Market St
| Time | AQI | Temp °C | Hum % | Pres Pa | CO μg/m³ | H₂S μg/m³ | NO μg/m³ | NO₂ μg/m³ | O₃ μg/m³ | SO₂ μg/m³ | PM1 μg/m³ | PM2.5 μg/m³ | PM10 μg/m³ |
|---|---|---|---|---|---|---|---|---|---|---|---|---|---|
| Saturday 11 July 2026 | |||||||||||||
| 14:50 | 1 | 38.1 | 30 | 66,698 | 0 | 0 | 0 | 14.55 | 9.78 | 2.04 | 2.85 | 6.01 | 8.39 |
| 14:43 | 1 | 38.1 | 30 | 66,690 | 0 | 1.74 | 0 | 5.42 | 27.59 | 3.23 | 2.14 | 5.5 | 6.05 |
| 14:42 | 1 | 38.3 | 30 | 66,688 | 0 | 0 | 0 | 0.07 | 5.8 | 3.7 | 2.14 | 6.04 | 6.64 |
| 14:41 | 1 | 38.3 | 30 | 66,686 | 0 | 0 | 0 | 5.96 | 19.87 | 2.6 | 1.43 | 6.04 | 6.66 |
| 14:40 | 1 | 38.4 | 30 | 66,677 | 0 | 0 | 0 | 1.33 | 7.72 | 3.38 | 2.14 | 6.04 | 7.52 |
| 14:39 | 1 | 38.4 | 30 | 66,659 | 0 | 4.66 | 0 | 13.13 | 25.29 | 2.67 | 1.43 | 4.95 | 5.44 |
| 14:37 | 1 | 38.2 | 30 | 66,649 | 0 | 5.33 | 0 | 17.6 | 24.09 | 1.44 | 2.85 | 6.58 | 6.66 |
| 14:36 | 1 | 38.2 | 30 | 66,659 | 0 | 1.54 | 0 | 1.11 | 19.44 | 3.91 | 2.14 | 4.96 | 5.45 |
| 14:34 | 1 | 38.1 | 30 | 66,688 | 0 | 0 | 0 | 0 | 6.44 | 4.12 | 1.43 | 4.41 | 4.93 |
| 14:32 | 1 | 38.1 | 30 | 66,688 | 0 | 0 | 0 | 0 | 3.02 | 4.47 | 2.85 | 5.49 | 6.04 |
| 14:30 | 1 | 38.2 | 30 | 66,746 | 0 | 0 | 0 | 0 | 14.75 | 3.96 | 2.14 | 5.49 | 5.79 |
| 14:18 | 1 | 38.4 | 30 | 66,729 | 0 | 0 | 0 | 6.36 | 18.34 | 3.5 | 1.43 | 4.42 | 4.86 |
| 14:16 | 1 | 38.4 | 30 | 66,692 | 0 | 0 | 0 | 5.04 | 20.15 | 3.01 | 1.43 | 4.95 | 5.45 |
| 14:15 | 1 | 38.4 | 30 | 66,708 | 0 | 0 | 0 | 0.84 | 11.61 | 3.14 | 1.43 | 4.95 | 5.45 |
| 14:14 | 1 | 38.3 | 30 | 66,702 | 0 | 0 | 0 | 0 | 3.77 | 3.92 | 2.85 | 5.49 | 6.04 |
| 14:12 | 1 | 38.1 | 30 | 66,688 | 0 | 7.48 | 0 | 9.8 | 32.4 | 3.21 | 2.85 | 5.49 | 6.04 |
| 14:11 | 1 | 38 | 30 | 66,675 | 0 | 1.67 | 0 | 7.35 | 24.38 | 2.94 | 0.71 | 3.87 | 4.25 |
| 14:10 | 1 | 38 | 30 | 66,661 | 0 | 0 | 0 | 5.45 | 13.32 | 2.83 | 2.85 | 6.04 | 6.64 |
| 14:09 | 1 | 38 | 30 | 66,673 | 0 | 0 | 0 | 2.74 | 14.55 | 3 | 1.43 | 4.95 | 5.44 |
| 14:08 | 1 | 37.9 | 30 | 66,690 | 0 | 0 | 0 | 3.04 | 11.31 | 2.54 | 1.43 | 6.03 | 6.63 |